Arcade, New York
Current Conditions -  °F | °C
As of 3:55 PM on Tuesday 27 Jan 2015 (Local Time) from KOLE Reporting Station
Overcast Overcast  
Wind Chill: -14°   Ceiling: 7000
Heat Index: -10°   Visibility: 10mi
Dew Point: -13°   Wind: 5mph
Humidity: 79%   Direction: 320°NW
Pressure: 29.87"   Gusts: NA
Location:  42.53°N, 78.42°W
Report Text: KOLE 272055Z AUTO 32004KT 10SM BKN070 OVC080 M10/M13 A2987 RMK AO2
Loading
Personal Weather Stations






























Interactive Weather Map New forecast layout! Learn more

10-Day Weather Forecast

Advertisements
Track Severe Weather on mobile